GW0007 Weather Reports


Display with metric or nautical units.
time (UTC)temp
F
wind
direction
speed
MPH
gust
MPH
rain 1hr
in
rain 24hr
in
rain mn
in
humidity
%
barometer
mb
20240530033038 47 301 4.0 14.0 0.00 0.31 0.31 81 1016.4
20240530031538 47 305 8.0 17.0 0.00 0.31 0.31 82 1016.3
20240530030044 48 291 10.0 19.0 0.00 0.31 0.31 82 1016.0
20240530024535 48 295 7.0 17.0 0.00 0.31 0.31 82 1015.8
20240530023035 48 280 10.0 19.0 0.00 0.31 0.31 82 1015.6
20240530021534 48 293 12.0 20.0 0.00 0.31 0.31 81 1015.6
20240530020042 48 288 9.0 17.0 0.00 0.31 0.31 78 1015.6
20240530014546 49 262 8.0 21.0 0.00 0.31 0.31 76 1015.4
20240530013043 48 231 7.0 19.0 0.04 0.31 0.31 80 1015.5
20240530011541 48 201 6.0 16.0 0.11 0.31 0.31 82 1015.6
20240530010039 48 226 6.0 12.0 0.12 0.31 0.31 80 1015.8
20240530004547 49 206 6.0 10.0 0.12 0.31 0.31 84 1015.6
20240530003033 50 122 1.0 11.0 0.08 0.26 0.26 86 1015.7
20240530001545 51 149 7.0 12.0 0.04 0.20 0.20 86 1015.0
20240530000052 50 344 4.0 11.0 0.06 0.19 0.19 85 1014.6
20240529234537 50 243 7.0 16.0 0.06 0.19 0.19 83 1014.2
20240529233033 51 219 12.0 18.0 0.05 0.18 0.18 83 1013.9
20240529231538 55 323 10.0 19.0 0.03 0.16 0.16 79 1013.7
20240529230040 57 331 7.0 13.0 0.00 0.13 0.13 77 1013.4
20240529224532 58 262 3.0 10.0 0.01 0.13 0.13 78 1013.0
20240529223056 58 276 5.0 8.0 0.03 0.13 0.13 78 1012.8
20240529221533 57 253 4.0 11.0 0.03 0.13 0.13 81 1012.9
20240529220052 55 257 4.0 13.0 0.03 0.13 0.13 87 1013.1
20240529214533 54 257 8.0 17.0 0.02 0.12 0.12 83 1013.6
20240529213032 56 251 10.0 17.0 0.00 0.10 0.10 78 1013.7
20240529211534 57 269 7.0 17.0 0.00 0.10 0.10 80 1013.4
20240529210035 58 278 9.0 20.0 0.00 0.10 0.10 75 1013.5
20240529204534 58 248 9.0 14.0 0.02 0.10 0.10 77 1013.0
20240529203037 58 233 5.0 14.0 0.03 0.10 0.10 76 1013.0
20240529201545 57 262 6.0 16.0 0.09 0.10 0.10 79 1013.4
20240529200034 55 221 8.0 17.0 0.09 0.10 0.10 82 1013.7
20240529194542 54 246 6.0 14.0 0.07 0.08 0.08 87 1013.6
20240529193035 53 238 8.0 18.0 0.05 0.06 0.06 88 1013.5
20240529191536 56 276 9.0 25.0 0.00 0.01 0.01 77 1013.5
20240529190038 57 319 11.0 28.0 0.00 0.01 0.01 70 1013.3
20240529184539 59 276 10.0 20.0 0.00 0.01 0.01 66 1013.4
20240529183033 61 304 11.0 24.0 0.00 0.01 0.01 60 1013.0
20240529181534 61 286 11.0 21.0 0.00 0.01 0.01 62 1013.0
20240529180044 61 255 12.0 21.0 0.01 0.01 0.01 67 1012.8
20240529174548 60 244 11.0 20.0 0.01 0.01 0.01 69 1012.8
20240529173035 59 272 12.0 22.0 0.01 0.01 0.01 69 1012.9
20240529171544 55 267 9.0 20.0 0.01 0.01 0.01 80 1013.2
20240529170035 56 336 17.0 40.0 0.00 0.00 0.00 74 1013.4
20240529164540 61 277 13.0 25.0 0.00 0.00 0.00 58 1013.3
20240529163034 62 225 9.0 21.0 0.00 0.00 0.00 61 1012.8
20240529161536 63 266 11.0 21.0 0.00 0.00 0.00 57 1012.9
20240529160042 62 272 8.0 23.0 0.00 0.00 0.00 59 1012.9
20240529154537 62 276 13.0 27.0 0.00 0.00 0.00 57 1012.8
20240529153042 62 269 12.0 23.0 0.00 0.00 0.00 57 1012.9
20240529151539 61 248 12.0 22.0 0.00 0.00 0.00 58 1013.0
20240529150044 62 281 10.0 20.0 0.00 0.00 0.00 58 1012.9
20240529144546 61 304 12.0 22.0 0.00 0.00 0.00 57 1012.7
20240529143033 61 285 11.0 21.0 0.00 0.00 0.00 58 1012.5
20240529141537 61 214 7.0 15.0 0.00 0.00 0.00 57 1012.5
20240529140047 59 310 3.0 12.0 0.00 0.00 0.00 66 1013.0
20240529134532 59 288 5.0 18.0 0.00 0.00 0.00 67 1013.1
20240529133037 57 335 11.0 15.0 0.00 0.00 0.00 69 1012.6
20240529131547 57 284 8.0 13.0 0.00 0.00 0.00 70 1012.5
20240529130034 54 309 3.0 7.0 0.00 0.00 0.00 76 1012.5
20240529124539 52 2 4.0 7.0 0.00 0.00 0.00 79 1012.3
20240529123042 50 339 1.0 4.0 0.00 0.00 0.00 82 1012.4
20240529121535 49 279 2.0 6.0 0.00 0.00 0.00 84 1012.2
20240529120042 49 249 2.0 6.0 0.00 0.00 0.00 84 1011.9
20240529114532 48 0 0.0 1.0 0.00 0.00 0.00 89 1011.6
20240529113030 49 0 0.0 1.0 0.00 0.00 0.00 88 1011.5
20240529111540 49 229 2.0 3.0 0.00 0.00 0.00 84 1011.4
20240529110033 50 309 0.0 1.0 0.00 0.00 0.00 86 1011.1
20240529104532 49 0 0.0 2.0 0.00 0.00 0.00 86 1011.1
20240529103038 50 174 0.0 2.0 0.00 0.00 0.00 86 1011.0
20240529101535 50 7 0.0 1.0 0.00 0.00 0.00 87 1011.1
20240529100034 51 44 0.0 2.0 0.00 0.00 0.00 86 1010.9
20240529094533 51 0 0.0 1.0 0.00 0.00 0.00 84 1011.1
20240529093041 51 300 1.0 2.0 0.00 0.00 0.00 85 1011.1
20240529091535 53 211 1.0 2.0 0.00 0.00 0.00 79 1010.9
20240529090036 53 253 1.0 3.0 0.00 0.00 0.00 83 1011.0
20240529084534 55 33 0.0 1.0 0.00 0.00 0.00 77 1010.8
20240529083034 55 34 0.0 3.0 0.00 0.00 0.00 78 1010.9
20240529081530 56 0 0.0 3.0 0.00 0.00 0.00 73 1010.9
20240529080032 57 252 2.0 4.0 0.00 0.00 0.00 70 1011.0
20240529074530 58 274 2.0 5.0 0.00 0.00 0.00 70 1011.1
20240529073032 59 307 3.0 7.0 0.00 0.00 0.00 69 1011.5
20240529071535 60 356 3.0 5.0 0.00 0.00 0.00 68 1011.9
20240529070039 62 119 2.0 8.0 0.00 0.00 0.00 62 1012.0
20240529064536 61 230 4.0 8.0 0.00 0.00 0.00 64 1012.3
20240529063039 61 218 4.0 12.0 0.00 0.00 0.00 65 1012.8
20240529061533 58 145 2.0 6.0 0.00 0.00 0.00 73 1012.6
20240529060035 58 260 4.0 12.0 0.00 0.00 0.00 72 1013.0
20240529054543 60 308 4.0 17.0 0.00 0.00 0.00 67 1013.1
20240529053050 60 134 5.0 6.0 0.00 0.00 0.00 65 1012.2
20240529051537 61 129 2.0 3.0 0.00 0.00 0.00 61 1012.2
20240529050041 62 27 0.0 4.0 0.00 0.00 0.00 59 1012.3
20240529044543 63 84 1.0 2.0 0.00 0.00 0.00 59 1012.4
20240529043042 64 63 2.0 6.0 0.00 0.00 0.00 56 1012.7
20240529041538 64 355 2.0 9.0 0.00 0.00 0.00 56 1013.1
20240529040042 64 308 1.0 5.0 0.00 0.00 0.00 59 1013.2
20240529035013 67 13 2.0 4.0 0.00 0.00 0.00 53 1013.1